sensor_id;sensor_type;location;lat;lon;timestamp;pressure;altitude;pressure_sealevel;temperature;humidity
76321;BME280;65132;52.088;5.402;2023-11-19T00:00:02;77013.44;;;-140.59;100.00
76321;BME280;65132;52.088;5.402;2023-11-19T00:02:29;77009.28;;;-140.59;100.00
76321;BME280;65132;52.088;5.402;2023-11-19T00:04:55;77009.28;;;-140.59;100.00
76321;BME280;65132;52.088;5.402;2023-11-19T00:07:22;77013.44;;;-140.59;100.00
76321;BME280;65132;52.088;5.402;2023-11-19T00:09:55;77007.22;;;-140.59;100.00
76321;BME280;65132;52.088;5.402;2023-11-19T00:12:22;77005.13;;;-140.59;100.00
76321;BME280;65132;52.088;5.402;2023-11-19T00:14:48;77001.00;;;-140.59;100.00
76321;BME280;65132;52.088;5.402;2023-11-19T00:17:17;77003.06;;;-140.59;100.00
76321;BME280;65132;52.088;5.402;2023-11-19T00:19:46;76998.91;;;-140.59;100.00
76321;BME280;65132;52.088;5.402;2023-11-19T00:22:15;76996.84;;;-140.59;100.00
76321;BME280;65132;52.088;5.402;2023-11-19T00:24:48;76988.53;;;-140.59;100.00
76321;BME280;65132;52.088;5.402;2023-11-19T00:27:14;76988.53;;;-140.59;100.00
76321;BME280;65132;52.088;5.402;2023-11-19T00:29:41;76986.44;;;-140.59;100.00
76321;BME280;65132;52.088;5.402;2023-11-19T00:32:07;76992.69;;;-140.59;100.00
76321;BME280;65132;52.088;5.402;2023-11-19T00:34:36;76994.75;;;-140.59;100.00
76321;BME280;65132;52.088;5.402;2023-11-19T00:37:07;76994.75;;;-140.59;100.00
76321;BME280;65132;52.088;5.402;2023-11-19T00:39:33;76998.91;;;-140.59;100.00
76321;BME280;65132;52.088;5.402;2023-11-19T00:42:05;76998.91;;;-140.59;100.00
76321;BME280;65132;52.088;5.402;2023-11-19T00:44:33;76996.84;;;-140.59;100.00
76321;BME280;65132;52.088;5.402;2023-11-19T00:47:11;76994.75;;;-140.59;100.00
76321;BME280;65132;52.088;5.402;2023-11-19T00:49:39;76988.53;;;-140.59;100.00
76321;BME280;65132;52.088;5.402;2023-11-19T00:52:07;76980.22;;;-140.59;100.00
76321;BME280;65132;52.088;5.402;2023-11-19T00:54:38;76969.81;;;-140.59;100.00
76321;BME280;65132;52.088;5.402;2023-11-19T00:57:09;76973.97;;;-140.59;100.00
76321;BME280;65132;52.088;5.402;2023-11-19T00:59:36;76971.91;;;-140.59;100.00
76321;BME280;65132;52.088;5.402;2023-11-19T01:02:02;76978.13;;;-140.59;100.00
76321;BME280;65132;52.088;5.402;2023-11-19T01:04:29;76969.81;;;-140.59;100.00
76321;BME280;65132;52.088;5.402;2023-11-19T01:06:59;76978.13;;;-140.59;100.00
76321;BME280;65132;52.088;5.402;2023-11-19T01:09:28;76963.59;;;-140.59;100.00
76321;BME280;65132;52.088;5.402;2023-11-19T01:11:55;76980.22;;;-140.59;100.00
76321;BME280;65132;52.088;5.402;2023-11-19T01:14:21;76973.97;;;-140.59;100.00
76321;BME280;65132;52.088;5.402;2023-11-19T01:16:47;76982.28;;;-140.59;100.00
76321;BME280;65132;52.088;5.402;2023-11-19T01:19:14;76980.22;;;-140.59;100.00
76321;BME280;65132;52.088;5.402;2023-11-19T01:21:48;76965.66;;;-140.59;100.00
76321;BME280;65132;52.088;5.402;2023-11-19T01:24:14;76959.44;;;-140.59;100.00
76321;BME280;65132;52.088;5.402;2023-11-19T01:26:46;76959.44;;;-140.59;100.00
76321;BME280;65132;52.088;5.402;2023-11-19T01:29:15;76955.28;;;-140.59;100.00
76321;BME280;65132;52.088;5.402;2023-11-19T01:31:45;76955.28;;;-140.59;100.00
76321;BME280;65132;52.088;5.402;2023-11-19T01:34:19;76949.06;;;-140.59;100.00
76321;BME280;65132;52.088;5.402;2023-11-19T01:36:46;76965.66;;;-140.59;100.00
76321;BME280;65132;52.088;5.402;2023-11-19T01:39:13;76965.66;;;-140.59;100.00
76321;BME280;65132;52.088;5.402;2023-11-19T01:41:39;76957.34;;;-140.59;100.00
76321;BME280;65132;52.088;5.402;2023-11-19T01:44:10;76967.75;;;-140.59;100.00
76321;BME280;65132;52.088;5.402;2023-11-19T01:46:40;76969.81;;;-140.59;100.00
76321;BME280;65132;52.088;5.402;2023-11-19T01:49:08;76967.75;;;-140.59;100.00
76321;BME280;65132;52.088;5.402;2023-11-19T01:51:37;76961.50;;;-140.59;100.00
76321;BME280;65132;52.088;5.402;2023-11-19T01:54:07;76963.59;;;-140.59;100.00
76321;BME280;65132;52.088;5.402;2023-11-19T01:56:35;76959.44;;;-140.59;100.00
76321;BME280;65132;52.088;5.402;2023-11-19T01:59:03;76965.66;;;-140.59;100.00
76321;BME280;65132;52.088;5.402;2023-11-19T02:01:43;76982.28;;;-140.59;100.00
76321;BME280;65132;52.088;5.402;2023-11-19T02:04:11;76973.97;;;-140.59;100.00
76321;BME280;65132;52.088;5.402;2023-11-19T02:06:40;76973.97;;;-140.59;100.00
76321;BME280;65132;52.088;5.402;2023-11-19T02:09:07;76980.22;;;-140.59;100.00
76321;BME280;65132;52.088;5.402;2023-11-19T02:11:34;76980.22;;;-140.59;100.00
76321;BME280;65132;52.088;5.402;2023-11-19T02:14:01;76978.13;;;-140.59;100.00
76321;BME280;65132;52.088;5.402;2023-11-19T02:16:28;76994.75;;;-140.59;100.00
76321;BME280;65132;52.088;5.402;2023-11-19T02:18:54;76998.91;;;-140.59;100.00
76321;BME280;65132;52.088;5.402;2023-11-19T02:21:25;77013.44;;;-140.59;100.00
76321;BME280;65132;52.088;5.402;2023-11-19T02:23:52;77025.91;;;-140.59;100.00
76321;BME280;65132;52.088;5.402;2023-11-19T02:26:28;77036.31;;;-140.59;100.00
76321;BME280;65132;52.088;5.402;2023-11-19T02:29:00;77038.38;;;-140.59;100.00
76321;BME280;65132;52.088;5.402;2023-11-19T02:31:31;77052.94;;;-140.59;100.00
76321;BME280;65132;52.088;5.402;2023-11-19T02:33:57;77063.31;;;-140.59;100.00
76321;BME280;65132;52.088;5.402;2023-11-19T02:36:26;77061.22;;;-140.59;100.00
76321;BME280;65132;52.088;5.402;2023-11-19T02:38:55;77082.00;;;-140.59;100.00
76321;BME280;65132;52.088;5.402;2023-11-19T02:41:27;77061.22;;;-140.59;100.00
76321;BME280;65132;52.088;5.402;2023-11-19T02:43:54;77067.47;;;-140.59;100.00
76321;BME280;65132;52.088;5.402;2023-11-19T02:46:20;77073.69;;;-140.59;100.00
76321;BME280;65132;52.088;5.402;2023-11-19T02:48:51;77086.16;;;-140.59;100.00
76321;BME280;65132;52.088;5.402;2023-11-19T02:51:17;77079.94;;;-140.59;100.00
76321;BME280;65132;52.088;5.402;2023-11-19T02:53:44;77061.22;;;-140.59;100.00
76321;BME280;65132;52.088;5.402;2023-11-19T02:56:15;77059.16;;;-140.59;100.00
76321;BME280;65132;52.088;5.402;2023-11-19T02:58:44;77082.00;;;-140.59;100.00
76321;BME280;65132;52.088;5.402;2023-11-19T03:01:11;77090.31;;;-140.59;100.00
76321;BME280;65132;52.088;5.402;2023-11-19T03:03:40;77092.41;;;-140.59;100.00
76321;BME280;65132;52.088;5.402;2023-11-19T03:06:07;77096.56;;;-140.59;100.00
76321;BME280;65132;52.088;5.402;2023-11-19T03:08:36;77098.63;;;-140.59;100.00
76321;BME280;65132;52.088;5.402;2023-11-19T03:11:03;77096.56;;;-140.59;100.00
76321;BME280;65132;52.088;5.402;2023-11-19T03:13:29;77106.94;;;-140.59;100.00
76321;BME280;65132;52.088;5.402;2023-11-19T03:15:58;77123.56;;;-140.59;100.00
76321;BME280;65132;52.088;5.402;2023-11-19T03:18:25;77131.88;;;-140.59;100.00
76321;BME280;65132;52.088;5.402;2023-11-19T03:20:51;77121.47;;;-140.59;100.00
76321;BME280;65132;52.088;5.402;2023-11-19T03:23:18;77140.19;;;-140.59;100.00
76321;BME280;65132;52.088;5.402;2023-11-19T03:25:45;77140.19;;;-140.59;100.00
76321;BME280;65132;52.088;5.402;2023-11-19T03:28:14;77129.78;;;-140.59;100.00
76321;BME280;65132;52.088;5.402;2023-11-19T03:30:43;77140.19;;;-140.59;100.00
76321;BME280;65132;52.088;5.402;2023-11-19T03:33:09;77144.34;;;-140.59;100.00
76321;BME280;65132;52.088;5.402;2023-11-19T03:35:41;77144.34;;;-140.59;100.00
76321;BME280;65132;52.088;5.402;2023-11-19T03:38:08;77142.25;;;-140.59;100.00
76321;BME280;65132;52.088;5.402;2023-11-19T03:40:34;77148.50;;;-140.59;100.00
76321;BME280;65132;52.088;5.402;2023-11-19T03:43:02;77144.34;;;-140.59;100.00
76321;BME280;65132;52.088;5.402;2023-11-19T03:45:29;77144.34;;;-140.59;100.00
76321;BME280;65132;52.088;5.402;2023-11-19T03:48:07;77140.19;;;-140.59;100.00
76321;BME280;65132;52.088;5.402;2023-11-19T03:50:33;77156.81;;;-140.59;100.00
76321;BME280;65132;52.088;5.402;2023-11-19T03:53:00;77158.88;;;-140.59;100.00
76321;BME280;65132;52.088;5.402;2023-11-19T03:55:26;77169.25;;;-140.59;100.00
76321;BME280;65132;52.088;5.402;2023-11-19T03:57:53;77175.50;;;-140.59;100.00
76321;BME280;65132;52.088;5.402;2023-11-19T04:00:20;77179.66;;;-140.59;100.00
76321;BME280;65132;52.088;5.402;2023-11-19T04:02:46;77173.41;;;-140.59;100.00
76321;BME280;65132;52.088;5.402;2023-11-19T04:05:14;77185.88;;;-140.59;100.00
76321;BME280;65132;52.088;5.402;2023-11-19T04:07:44;77190.03;;;-140.59;100.00
76321;BME280;65132;52.088;5.402;2023-11-19T04:10:11;77196.28;;;-140.59;100.00
76321;BME280;65132;52.088;5.402;2023-11-19T04:12:41;77206.66;;;-140.59;100.00
76321;BME280;65132;52.088;5.402;2023-11-19T04:15:09;77204.59;;;-140.59;100.00
76321;BME280;65132;52.088;5.402;2023-11-19T04:17:37;77206.66;;;-140.59;100.00
76321;BME280;65132;52.088;5.402;2023-11-19T04:20:04;77212.91;;;-140.59;100.00
76321;BME280;65132;52.088;5.402;2023-11-19T04:22:30;77208.75;;;-140.59;100.00
76321;BME280;65132;52.088;5.402;2023-11-19T04:24:57;77223.28;;;-140.59;100.00
76321;BME280;65132;52.088;5.402;2023-11-19T04:27:23;77227.44;;;-140.59;100.00
76321;BME280;65132;52.088;5.402;2023-11-19T04:29:50;77223.28;;;-140.59;100.00
76321;BME280;65132;52.088;5.402;2023-11-19T04:32:16;77221.22;;;-140.59;100.00
76321;BME280;65132;52.088;5.402;2023-11-19T04:34:43;77208.75;;;-140.59;100.00
76321;BME280;65132;52.088;5.402;2023-11-19T04:37:09;77202.50;;;-140.59;100.00
76321;BME280;65132;52.088;5.402;2023-11-19T04:39:47;77214.97;;;-140.59;100.00
76321;BME280;65132;52.088;5.402;2023-11-19T04:42:16;77223.28;;;-140.59;100.00
76321;BME280;65132;52.088;5.402;2023-11-19T04:44:44;77231.59;;;-140.59;100.00
76321;BME280;65132;52.088;5.402;2023-11-19T04:47:11;77235.75;;;-140.59;100.00
76321;BME280;65132;52.088;5.402;2023-11-19T04:49:43;77231.59;;;-140.59;100.00
76321;BME280;65132;52.088;5.402;2023-11-19T04:52:10;77231.59;;;-140.59;100.00
76321;BME280;65132;52.088;5.402;2023-11-19T04:54:44;77225.38;;;-140.59;100.00
76321;BME280;65132;52.088;5.402;2023-11-19T04:57:15;77217.06;;;-140.59;100.00
76321;BME280;65132;52.088;5.402;2023-11-19T04:59:41;77229.50;;;-140.59;100.00
76321;BME280;65132;52.088;5.402;2023-11-19T05:02:15;77221.22;;;-140.59;100.00
76321;BME280;65132;52.088;5.402;2023-11-19T05:04:47;77223.28;;;-140.59;100.00
76321;BME280;65132;52.088;5.402;2023-11-19T05:07:13;77227.44;;;-140.59;100.00
76321;BME280;65132;52.088;5.402;2023-11-19T05:09:43;77227.44;;;-140.59;100.00
76321;BME280;65132;52.088;5.402;2023-11-19T05:12:12;77235.75;;;-140.59;100.00
76321;BME280;65132;52.088;5.402;2023-11-19T05:14:42;77244.06;;;-140.59;100.00
76321;BME280;65132;52.088;5.402;2023-11-19T05:17:08;77248.22;;;-140.59;100.00
76321;BME280;65132;52.088;5.402;2023-11-19T05:19:35;77244.06;;;-140.59;100.00
76321;BME280;65132;52.088;5.402;2023-11-19T05:22:01;77237.81;;;-140.59;100.00
76321;BME280;65132;52.088;5.402;2023-11-19T05:24:28;77246.13;;;-140.59;100.00
76321;BME280;65132;52.088;5.402;2023-11-19T05:26:54;77252.38;;;-140.59;100.00
76321;BME280;65132;52.088;5.402;2023-11-19T05:29:21;77248.22;;;-140.59;100.00
76321;BME280;65132;52.088;5.402;2023-11-19T05:31:47;77241.97;;;-140.59;100.00
76321;BME280;65132;52.088;5.402;2023-11-19T05:34:15;77241.97;;;-140.59;100.00
76321;BME280;65132;52.088;5.402;2023-11-19T05:36:47;77231.59;;;-140.59;100.00
76321;BME280;65132;52.088;5.402;2023-11-19T05:39:14;77239.91;;;-140.59;100.00
76321;BME280;65132;52.088;5.402;2023-11-19T05:41:40;77254.44;;;-140.59;100.00
76321;BME280;65132;52.088;5.402;2023-11-19T05:44:06;77256.53;;;-140.59;100.00
76321;BME280;65132;52.088;5.402;2023-11-19T05:46:34;77254.44;;;-140.59;100.00
76321;BME280;65132;52.088;5.402;2023-11-19T05:49:01;77254.44;;;-140.59;100.00
76321;BME280;65132;52.088;5.402;2023-11-19T05:51:29;77262.75;;;-140.59;100.00
76321;BME280;65132;52.088;5.402;2023-11-19T05:53:58;77273.16;;;-140.59;100.00
76321;BME280;65132;52.088;5.402;2023-11-19T05:56:24;77264.84;;;-140.59;100.00
76321;BME280;65132;52.088;5.402;2023-11-19T05:58:53;77258.59;;;-140.59;100.00
76321;BME280;65132;52.088;5.402;2023-11-19T06:01:20;77269.00;;;-140.59;100.00
76321;BME280;65132;52.088;5.402;2023-11-19T06:03:47;77258.59;;;-140.59;100.00
76321;BME280;65132;52.088;5.402;2023-11-19T06:06:14;77266.91;;;-140.59;100.00
76321;BME280;65132;52.088;5.402;2023-11-19T06:08:40;77258.59;;;-140.59;100.00
76321;BME280;65132;52.088;5.402;2023-11-19T06:11:07;77252.38;;;-140.59;100.00
76321;BME280;65132;52.088;5.402;2023-11-19T06:13:33;77252.38;;;-140.59;100.00
76321;BME280;65132;52.088;5.402;2023-11-19T06:16:04;77264.84;;;-140.59;100.00
76321;BME280;65132;52.088;5.402;2023-11-19T06:18:31;77256.53;;;-140.59;100.00
76321;BME280;65132;52.088;5.402;2023-11-19T06:20:57;77277.31;;;-140.59;100.00
76321;BME280;65132;52.088;5.402;2023-11-19T06:23:24;77273.16;;;-140.59;100.00
76321;BME280;65132;52.088;5.402;2023-11-19T06:25:50;77271.06;;;-140.59;100.00
76321;BME280;65132;52.088;5.402;2023-11-19T06:28:17;77260.69;;;-140.59;100.00
76321;BME280;65132;52.088;5.402;2023-11-19T06:30:45;77271.06;;;-140.59;100.00
76321;BME280;65132;52.088;5.402;2023-11-19T06:33:15;77260.69;;;-140.59;100.00
76321;BME280;65132;52.088;5.402;2023-11-19T06:35:42;77279.38;;;-140.59;100.00
76321;BME280;65132;52.088;5.402;2023-11-19T06:38:08;77281.47;;;-140.59;100.00
76321;BME280;65132;52.088;5.402;2023-11-19T06:40:35;77289.78;;;-140.59;100.00
76321;BME280;65132;52.088;5.402;2023-11-19T06:43:02;77285.63;;;-140.59;100.00
76321;BME280;65132;52.088;5.402;2023-11-19T06:45:29;77289.78;;;-140.59;100.00
76321;BME280;65132;52.088;5.402;2023-11-19T06:47:56;77283.53;;;-140.59;100.00
76321;BME280;65132;52.088;5.402;2023-11-19T06:50:25;77287.69;;;-140.59;100.00
76321;BME280;65132;52.088;5.402;2023-11-19T06:52:51;77308.47;;;-140.59;100.00
76321;BME280;65132;52.088;5.402;2023-11-19T06:55:17;77306.38;;;-140.59;100.00
76321;BME280;65132;52.088;5.402;2023-11-19T06:57:44;77306.38;;;-140.59;100.00
76321;BME280;65132;52.088;5.402;2023-11-19T07:00:11;77318.84;;;-140.59;100.00
76321;BME280;65132;52.088;5.402;2023-11-19T07:02:38;77308.47;;;-140.59;100.00
76321;BME280;65132;52.088;5.402;2023-11-19T07:05:05;77306.38;;;-140.59;100.00
76321;BME280;65132;52.088;5.402;2023-11-19T07:07:32;77316.78;;;-140.59;100.00
76321;BME280;65132;52.088;5.402;2023-11-19T07:09:58;77314.69;;;-140.59;100.00
76321;BME280;65132;52.088;5.402;2023-11-19T07:12:24;77310.53;;;-140.59;100.00
76321;BME280;65132;52.088;5.402;2023-11-19T07:14:51;77316.78;;;-140.59;100.00
76321;BME280;65132;52.088;5.402;2023-11-19T07:17:18;77306.38;;;-140.59;100.00
76321;BME280;65132;52.088;5.402;2023-11-19T07:19:49;77308.47;;;-140.59;100.00
76321;BME280;65132;52.088;5.402;2023-11-19T07:22:18;77302.22;;;-140.59;100.00
76321;BME280;65132;52.088;5.402;2023-11-19T07:24:44;77306.38;;;-140.59;100.00
76321;BME280;65132;52.088;5.402;2023-11-19T07:27:11;77310.53;;;-140.59;100.00
76321;BME280;65132;52.088;5.402;2023-11-19T07:29:38;77320.94;;;-140.59;100.00
76321;BME280;65132;52.088;5.402;2023-11-19T07:32:05;77327.16;;;-140.59;100.00
76321;BME280;65132;52.088;5.402;2023-11-19T07:34:32;77325.09;;;-140.59;100.00
76321;BME280;65132;52.088;5.402;2023-11-19T07:37:01;77306.38;;;-140.59;100.00
76321;BME280;65132;52.088;5.402;2023-11-19T07:39:27;77316.78;;;-140.59;100.00
76321;BME280;65132;52.088;5.402;2023-11-19T07:41:54;77310.53;;;-140.59;100.00
76321;BME280;65132;52.088;5.402;2023-11-19T07:44:20;77325.09;;;-140.59;100.00
76321;BME280;65132;52.088;5.402;2023-11-19T07:46:50;77327.16;;;-140.59;100.00
76321;BME280;65132;52.088;5.402;2023-11-19T07:49:17;77323.00;;;-140.59;100.00
76321;BME280;65132;52.088;5.402;2023-11-19T07:51:43;77316.78;;;-140.59;100.00
76321;BME280;65132;52.088;5.402;2023-11-19T07:54:10;77308.47;;;-140.59;100.00
76321;BME280;65132;52.088;5.402;2023-11-19T07:56:36;77300.16;;;-140.59;100.00
76321;BME280;65132;52.088;5.402;2023-11-19T07:59:05;77298.06;;;-140.59;100.00
76321;BME280;65132;52.088;5.402;2023-11-19T08:01:32;77293.91;;;-140.59;100.00
76321;BME280;65132;52.088;5.402;2023-11-19T08:03:59;77285.63;;;-140.59;100.00
76321;BME280;65132;52.088;5.402;2023-11-19T08:06:26;77279.38;;;-140.59;100.00
76321;BME280;65132;52.088;5.402;2023-11-19T08:08:58;77279.38;;;-140.59;100.00
76321;BME280;65132;52.088;5.402;2023-11-19T08:11:29;77279.38;;;-140.59;100.00
76321;BME280;65132;52.088;5.402;2023-11-19T08:13:55;77256.53;;;-140.59;100.00
76321;BME280;65132;52.088;5.402;2023-11-19T08:16:22;77256.53;;;-140.59;100.00
76321;BME280;65132;52.088;5.402;2023-11-19T08:18:49;77256.53;;;-140.59;100.00
76321;BME280;65132;52.088;5.402;2023-11-19T08:21:15;77264.84;;;-140.59;100.00
76321;BME280;65132;52.088;5.402;2023-11-19T08:23:43;77258.59;;;-140.59;100.00
76321;BME280;65132;52.088;5.402;2023-11-19T08:26:10;77260.69;;;-140.59;100.00
76321;BME280;65132;52.088;5.402;2023-11-19T08:28:39;77260.69;;;-140.59;100.00
76321;BME280;65132;52.088;5.402;2023-11-19T08:31:06;77264.84;;;-140.59;100.00
76321;BME280;65132;52.088;5.402;2023-11-19T08:33:34;77269.00;;;-140.59;100.00
76321;BME280;65132;52.088;5.402;2023-11-19T08:36:00;77264.84;;;-140.59;100.00
76321;BME280;65132;52.088;5.402;2023-11-19T08:38:27;77264.84;;;-140.59;100.00
76321;BME280;65132;52.088;5.402;2023-11-19T08:40:56;77239.91;;;-140.59;100.00
76321;BME280;65132;52.088;5.402;2023-11-19T08:43:22;77227.44;;;-140.59;100.00
76321;BME280;65132;52.088;5.402;2023-11-19T08:45:49;77239.91;;;-140.59;100.00
76321;BME280;65132;52.088;5.402;2023-11-19T08:48:17;77229.50;;;-140.59;100.00
76321;BME280;65132;52.088;5.402;2023-11-19T08:50:48;77233.66;;;-140.59;100.00
76321;BME280;65132;52.088;5.402;2023-11-19T08:53:15;77233.66;;;-140.59;100.00
76321;BME280;65132;52.088;5.402;2023-11-19T08:55:41;77231.59;;;-140.59;100.00
76321;BME280;65132;52.088;5.402;2023-11-19T08:58:11;77198.34;;;-140.59;100.00
76321;BME280;65132;52.088;5.402;2023-11-19T09:00:40;77165.09;;;-140.59;100.00
76321;BME280;65132;52.088;5.402;2023-11-19T09:03:11;77138.09;;;-140.59;100.00
76321;BME280;65132;52.088;5.402;2023-11-19T09:05:38;77154.72;;;-140.59;100.00
76321;BME280;65132;52.088;5.402;2023-11-19T09:08:10;77158.88;;;-140.59;100.00
76321;BME280;65132;52.088;5.402;2023-11-19T09:10:37;77192.13;;;-140.59;100.00
76321;BME280;65132;52.088;5.402;2023-11-19T09:13:03;77190.03;;;-140.59;100.00
76321;BME280;65132;52.088;5.402;2023-11-19T09:15:29;77190.03;;;-140.59;100.00
76321;BME280;65132;52.088;5.402;2023-11-19T09:17:56;77183.81;;;-140.59;100.00
76321;BME280;65132;52.088;5.402;2023-11-19T09:20:26;77175.50;;;-140.59;100.00
76321;BME280;65132;52.088;5.402;2023-11-19T09:22:53;77194.19;;;-140.59;100.00
76321;BME280;65132;52.088;5.402;2023-11-19T09:25:20;77200.44;;;-140.59;100.00
76321;BME280;65132;52.088;5.402;2023-11-19T09:27:46;77198.34;;;-140.59;100.00
76321;BME280;65132;52.088;5.402;2023-11-19T09:30:16;77214.97;;;-140.59;100.00
76321;BME280;65132;52.088;5.402;2023-11-19T09:32:42;77210.81;;;-140.59;100.00
76321;BME280;65132;52.088;5.402;2023-11-19T09:35:12;77210.81;;;-140.59;100.00
76321;BME280;65132;52.088;5.402;2023-11-19T09:37:39;77212.91;;;-140.59;100.00
76321;BME280;65132;52.088;5.402;2023-11-19T09:40:08;77194.19;;;-140.59;100.00
76321;BME280;65132;52.088;5.402;2023-11-19T09:42:43;77150.56;;;-140.59;100.00
76321;BME280;65132;52.088;5.402;2023-11-19T09:45:15;77144.34;;;-140.59;100.00
76321;BME280;65132;52.088;5.402;2023-11-19T09:47:44;77136.03;;;-140.59;100.00
76321;BME280;65132;52.088;5.402;2023-11-19T09:50:18;77152.66;;;-140.59;100.00
76321;BME280;65132;52.088;5.402;2023-11-19T09:52:49;77152.66;;;-140.59;100.00
76321;BME280;65132;52.088;5.402;2023-11-19T09:55:15;77142.25;;;-140.59;100.00
76321;BME280;65132;52.088;5.402;2023-11-19T09:57:43;77136.03;;;-140.59;100.00
76321;BME280;65132;52.088;5.402;2023-11-19T10:00:17;77138.09;;;-140.59;100.00
76321;BME280;65132;52.088;5.402;2023-11-19T10:02:45;77131.88;;;-140.59;100.00
76321;BME280;65132;52.088;5.402;2023-11-19T10:05:14;77098.63;;;-140.59;100.00
76321;BME280;65132;52.088;5.402;2023-11-19T10:07:42;77104.88;;;-140.59;100.00
76321;BME280;65132;52.088;5.402;2023-11-19T10:10:09;77098.63;;;-140.59;100.00
76321;BME280;65132;52.088;5.402;2023-11-19T10:12:36;77104.88;;;-140.59;100.00
76321;BME280;65132;52.088;5.402;2023-11-19T10:15:04;77061.22;;;-140.59;100.00
76321;BME280;65132;52.088;5.402;2023-11-19T10:17:35;76965.66;;;-140.59;100.00
76321;BME280;65132;52.088;5.402;2023-11-19T10:20:06;76934.50;;;-140.59;97.87
76321;BME280;65132;52.088;5.402;2023-11-19T10:22:36;76820.25;;;-140.59;92.31
76321;BME280;65132;52.088;5.402;2023-11-19T10:27:52;76780.78;;;-140.59;88.01
76321;BME280;65132;52.088;5.402;2023-11-19T10:30:26;76710.16;;;-140.59;86.53
76321;BME280;65132;52.088;5.402;2023-11-19T10:33:11;76697.69;;;-140.59;83.98
76321;BME280;65132;52.088;5.402;2023-11-19T10:35:57;76757.94;;;-140.59;83.61
76321;BME280;65132;52.088;5.402;2023-11-19T10:38:26;76697.69;;;-140.59;82.40
76321;BME280;65132;52.088;5.402;2023-11-19T10:40:54;76722.63;;;-140.59;85.19
76321;BME280;65132;52.088;5.402;2023-11-19T10:43:22;76760.00;;;-140.59;86.81
76321;BME280;65132;52.088;5.402;2023-11-19T10:45:49;76712.22;;;-140.59;85.02
76321;BME280;65132;52.088;5.402;2023-11-19T10:48:18;76618.75;;;-140.59;82.79
76321;BME280;65132;52.088;5.402;2023-11-19T10:50:53;76533.59;;;-140.59;79.34
76321;BME280;65132;52.088;5.402;2023-11-19T10:53:20;76570.97;;;-140.59;77.46
76321;BME280;65132;52.088;5.402;2023-11-19T10:55:49;76595.91;;;-140.59;78.39
76321;BME280;65132;52.088;5.402;2023-11-19T10:58:17;76683.16;;;-140.59;82.47
76321;BME280;65132;52.088;5.402;2023-11-19T11:00:47;76554.34;;;-140.59;78.92
76321;BME280;65132;52.088;5.402;2023-11-19T11:03:21;76496.19;;;-140.59;74.95
76321;BME280;65132;52.088;5.402;2023-11-19T11:05:51;76570.97;;;-140.59;74.92
76321;BME280;65132;52.088;5.402;2023-11-19T11:08:19;76620.81;;;-140.59;78.06
76321;BME280;65132;52.088;5.402;2023-11-19T11:13:23;76637.44;;;-140.59;77.53
76321;BME280;65132;52.088;5.402;2023-11-19T11:15:50;76766.25;;;-140.59;82.90
76321;BME280;65132;52.088;5.402;2023-11-19T11:18:17;76762.09;;;-140.59;83.97
76321;BME280;65132;52.088;5.402;2023-11-19T11:20:44;76853.50;;;-140.59;87.63
76321;BME280;65132;52.088;5.402;2023-11-19T11:28:59;76915.81;;;-140.59;93.33
76321;BME280;65132;52.088;5.402;2023-11-19T11:31:45;76915.81;;;-140.59;94.56
76321;BME280;65132;52.088;5.402;2023-11-19T11:39:34;76978.13;;;-140.59;98.78
76321;BME280;65132;52.088;5.402;2023-11-19T11:45:08;76946.97;;;-140.59;97.78
76321;BME280;65132;52.088;5.402;2023-11-19T11:50:10;76946.97;;;-140.59;97.54
76321;BME280;65132;52.088;5.402;2023-11-19T11:55:35;76959.44;;;-140.59;98.12
76321;BME280;65132;52.088;5.402;2023-11-19T11:58:03;76953.22;;;-140.59;97.91
76321;BME280;65132;52.088;5.402;2023-11-19T12:00:33;76967.75;;;-140.59;99.26
76321;BME280;65132;52.088;5.402;2023-11-19T12:03:07;76969.81;;;-140.59;99.06
76321;BME280;65132;52.088;5.402;2023-11-19T12:05:43;76986.44;;;-140.59;100.00
76321;BME280;65132;52.088;5.402;2023-11-19T12:08:15;76963.59;;;-140.59;99.13
76321;BME280;65132;52.088;5.402;2023-11-19T12:10:50;76951.13;;;-140.59;98.17
76321;BME280;65132;52.088;5.402;2023-11-19T12:13:20;76955.28;;;-140.59;99.61
76321;BME280;65132;52.088;5.402;2023-11-19T12:18:28;76932.44;;;-140.59;97.53
76321;BME280;65132;52.088;5.402;2023-11-19T12:20:56;76926.19;;;-140.59;96.75
76321;BME280;65132;52.088;5.402;2023-11-19T12:23:25;76928.28;;;-140.59;97.05
76321;BME280;65132;52.088;5.402;2023-11-19T12:25:54;76936.59;;;-140.59;97.05
76321;BME280;65132;52.088;5.402;2023-11-19T12:28:20;76949.06;;;-140.59;97.78
76321;BME280;65132;52.088;5.402;2023-11-19T12:30:49;76942.81;;;-140.59;97.33
76321;BME280;65132;52.088;5.402;2023-11-19T12:33:16;76951.13;;;-140.59;98.44
76321;BME280;65132;52.088;5.402;2023-11-19T12:35:44;76971.91;;;-140.59;99.26
76321;BME280;65132;52.088;5.402;2023-11-19T12:38:24;76957.34;;;-140.59;96.84
76321;BME280;65132;52.088;5.402;2023-11-19T12:41:08;76936.59;;;-140.59;95.52
76321;BME280;65132;52.088;5.402;2023-11-19T12:43:35;76924.13;;;-140.59;95.97
76321;BME280;65132;52.088;5.402;2023-11-19T12:46:21;76905.41;;;-140.59;95.10
76321;BME280;65132;52.088;5.402;2023-11-19T12:48:49;76903.34;;;-140.59;95.41
76321;BME280;65132;52.088;5.402;2023-11-19T12:51:16;76913.72;;;-140.59;96.16
76321;BME280;65132;52.088;5.402;2023-11-19T12:54:01;76884.66;;;-140.59;94.79
76321;BME280;65132;52.088;5.402;2023-11-19T12:56:29;76882.56;;;-140.59;94.59
76321;BME280;65132;52.088;5.402;2023-11-19T12:59:10;76922.03;;;-140.59;95.12
76321;BME280;65132;52.088;5.402;2023-11-19T13:01:36;76938.66;;;-140.59;94.75
76321;BME280;65132;52.088;5.402;2023-11-19T13:04:22;76949.06;;;-140.59;97.05
76321;BME280;65132;52.088;5.402;2023-11-19T13:06:49;76953.22;;;-140.59;97.36